sensor_id;sensor_type;location;lat;lon;timestamp;P1;durP1;ratioP1;P2;durP2;ratioP2
62798;SDS011;48842;51.046;13.796;2023-05-29T00:00:09;9.67;;;7.50;;
62798;SDS011;48842;51.046;13.796;2023-05-29T00:02:34;11.03;;;7.70;;
62798;SDS011;48842;51.046;13.796;2023-05-29T00:05:00;14.03;;;7.50;;
62798;SDS011;48842;51.046;13.796;2023-05-29T00:07:28;8.17;;;6.90;;
62798;SDS011;48842;51.046;13.796;2023-05-29T00:09:57;10.20;;;7.63;;
62798;SDS011;48842;51.046;13.796;2023-05-29T00:12:23;9.20;;;7.40;;
62798;SDS011;48842;51.046;13.796;2023-05-29T00:14:48;11.83;;;6.90;;
62798;SDS011;48842;51.046;13.796;2023-05-29T00:17:14;9.50;;;6.67;;
62798;SDS011;48842;51.046;13.796;2023-05-29T00:19:40;9.50;;;7.57;;
62798;SDS011;48842;51.046;13.796;2023-05-29T00:22:08;8.33;;;6.17;;
62798;SDS011;48842;51.046;13.796;2023-05-29T00:24:33;10.33;;;6.73;;
62798;SDS011;48842;51.046;13.796;2023-05-29T00:26:58;11.80;;;6.37;;
62798;SDS011;48842;51.046;13.796;2023-05-29T00:29:24;9.83;;;6.17;;
62798;SDS011;48842;51.046;13.796;2023-05-29T00:31:49;7.10;;;5.80;;
62798;SDS011;48842;51.046;13.796;2023-05-29T00:34:18;8.33;;;6.13;;
62798;SDS011;48842;51.046;13.796;2023-05-29T00:36:43;8.70;;;6.30;;
62798;SDS011;48842;51.046;13.796;2023-05-29T00:39:09;6.67;;;5.70;;
62798;SDS011;48842;51.046;13.796;2023-05-29T00:41:35;7.97;;;6.27;;
62798;SDS011;48842;51.046;13.796;2023-05-29T00:44:00;9.03;;;6.20;;
62798;SDS011;48842;51.046;13.796;2023-05-29T00:46:25;6.97;;;5.93;;
62798;SDS011;48842;51.046;13.796;2023-05-29T00:48:51;6.30;;;5.47;;
62798;SDS011;48842;51.046;13.796;2023-05-29T00:51:18;6.03;;;5.17;;
62798;SDS011;48842;51.046;13.796;2023-05-29T00:53:43;8.07;;;6.03;;
62798;SDS011;48842;51.046;13.796;2023-05-29T00:56:09;4.83;;;4.33;;
62798;SDS011;48842;51.046;13.796;2023-05-29T00:58:35;5.57;;;5.07;;
62798;SDS011;48842;51.046;13.796;2023-05-29T01:01:01;7.73;;;5.57;;
62798;SDS011;48842;51.046;13.796;2023-05-29T01:03:28;7.80;;;5.60;;
62798;SDS011;48842;51.046;13.796;2023-05-29T01:05:53;7.27;;;5.87;;
62798;SDS011;48842;51.046;13.796;2023-05-29T01:08:19;6.43;;;5.73;;
62798;SDS011;48842;51.046;13.796;2023-05-29T01:10:44;8.03;;;5.47;;
62798;SDS011;48842;51.046;13.796;2023-05-29T01:13:11;14.97;;;5.93;;
62798;SDS011;48842;51.046;13.796;2023-05-29T01:15:54;10.17;;;6.87;;
62798;SDS011;48842;51.046;13.796;2023-05-29T01:18:35;8.13;;;5.40;;
62798;SDS011;48842;51.046;13.796;2023-05-29T01:24:02;10.90;;;5.87;;
62798;SDS011;48842;51.046;13.796;2023-05-29T01:26:45;10.80;;;5.10;;
62798;SDS011;48842;51.046;13.796;2023-05-29T01:29:14;6.13;;;4.90;;
62798;SDS011;48842;51.046;13.796;2023-05-29T01:31:42;6.57;;;5.33;;
62798;SDS011;48842;51.046;13.796;2023-05-29T01:34:08;6.03;;;5.17;;
62798;SDS011;48842;51.046;13.796;2023-05-29T01:36:34;8.50;;;5.27;;
62798;SDS011;48842;51.046;13.796;2023-05-29T01:39:01;7.20;;;5.30;;
62798;SDS011;48842;51.046;13.796;2023-05-29T01:41:27;8.77;;;5.73;;
62798;SDS011;48842;51.046;13.796;2023-05-29T01:43:54;10.10;;;5.90;;
62798;SDS011;48842;51.046;13.796;2023-05-29T01:46:22;5.90;;;5.30;;
62798;SDS011;48842;51.046;13.796;2023-05-29T01:48:50;8.97;;;6.33;;
62798;SDS011;48842;51.046;13.796;2023-05-29T01:51:16;8.27;;;5.77;;
62798;SDS011;48842;51.046;13.796;2023-05-29T01:53:41;7.47;;;5.20;;
62798;SDS011;48842;51.046;13.796;2023-05-29T01:56:07;8.27;;;5.40;;
62798;SDS011;48842;51.046;13.796;2023-05-29T01:58:34;6.93;;;6.00;;
62798;SDS011;48842;51.046;13.796;2023-05-29T02:01:01;8.70;;;6.40;;
62798;SDS011;48842;51.046;13.796;2023-05-29T02:03:28;7.87;;;5.00;;
62798;SDS011;48842;51.046;13.796;2023-05-29T02:05:54;7.13;;;5.67;;
62798;SDS011;48842;51.046;13.796;2023-05-29T02:08:20;10.03;;;6.13;;
62798;SDS011;48842;51.046;13.796;2023-05-29T02:10:46;6.87;;;5.73;;
62798;SDS011;48842;51.046;13.796;2023-05-29T02:13:11;14.20;;;6.90;;
62798;SDS011;48842;51.046;13.796;2023-05-29T02:15:36;7.00;;;5.43;;
62798;SDS011;48842;51.046;13.796;2023-05-29T02:18:01;9.10;;;5.30;;
62798;SDS011;48842;51.046;13.796;2023-05-29T02:20:27;6.70;;;5.67;;
62798;SDS011;48842;51.046;13.796;2023-05-29T02:22:52;6.87;;;5.40;;
62798;SDS011;48842;51.046;13.796;2023-05-29T02:25:17;9.03;;;5.33;;
62798;SDS011;48842;51.046;13.796;2023-05-29T02:27:42;9.10;;;5.50;;
62798;SDS011;48842;51.046;13.796;2023-05-29T02:30:08;10.70;;;6.30;;
62798;SDS011;48842;51.046;13.796;2023-05-29T02:32:34;9.23;;;5.70;;
62798;SDS011;48842;51.046;13.796;2023-05-29T02:34:59;7.13;;;6.00;;
62798;SDS011;48842;51.046;13.796;2023-05-29T02:37:24;5.87;;;5.37;;
62798;SDS011;48842;51.046;13.796;2023-05-29T02:39:51;8.27;;;6.07;;
62798;SDS011;48842;51.046;13.796;2023-05-29T02:42:16;9.27;;;5.50;;
62798;SDS011;48842;51.046;13.796;2023-05-29T02:44:42;6.03;;;5.37;;
62798;SDS011;48842;51.046;13.796;2023-05-29T02:47:07;5.60;;;5.10;;
62798;SDS011;48842;51.046;13.796;2023-05-29T02:49:32;9.37;;;6.07;;
62798;SDS011;48842;51.046;13.796;2023-05-29T02:51:57;5.73;;;5.17;;
62798;SDS011;48842;51.046;13.796;2023-05-29T02:54:23;8.50;;;5.60;;
62798;SDS011;48842;51.046;13.796;2023-05-29T02:56:49;6.60;;;5.07;;
62798;SDS011;48842;51.046;13.796;2023-05-29T02:59:15;5.80;;;4.70;;
62798;SDS011;48842;51.046;13.796;2023-05-29T03:01:40;6.10;;;5.07;;
62798;SDS011;48842;51.046;13.796;2023-05-29T03:04:06;5.70;;;5.17;;
62798;SDS011;48842;51.046;13.796;2023-05-29T03:06:31;8.37;;;5.90;;
62798;SDS011;48842;51.046;13.796;2023-05-29T03:08:57;7.20;;;5.20;;
62798;SDS011;48842;51.046;13.796;2023-05-29T03:11:24;5.27;;;4.63;;
62798;SDS011;48842;51.046;13.796;2023-05-29T03:13:49;7.50;;;5.10;;
62798;SDS011;48842;51.046;13.796;2023-05-29T03:16:15;8.20;;;5.30;;
62798;SDS011;48842;51.046;13.796;2023-05-29T03:18:41;5.87;;;5.27;;
62798;SDS011;48842;51.046;13.796;2023-05-29T03:21:06;7.47;;;5.43;;
62798;SDS011;48842;51.046;13.796;2023-05-29T03:23:31;7.00;;;4.90;;
62798;SDS011;48842;51.046;13.796;2023-05-29T03:25:57;5.77;;;5.03;;
62798;SDS011;48842;51.046;13.796;2023-05-29T03:28:22;8.67;;;5.10;;
62798;SDS011;48842;51.046;13.796;2023-05-29T03:30:47;6.47;;;5.40;;
62798;SDS011;48842;51.046;13.796;2023-05-29T03:33:12;8.60;;;5.67;;
62798;SDS011;48842;51.046;13.796;2023-05-29T03:35:38;9.47;;;5.83;;
62798;SDS011;48842;51.046;13.796;2023-05-29T03:38:03;5.50;;;4.90;;
62798;SDS011;48842;51.046;13.796;2023-05-29T03:40:28;6.40;;;5.60;;
62798;SDS011;48842;51.046;13.796;2023-05-29T03:42:53;11.33;;;5.40;;
62798;SDS011;48842;51.046;13.796;2023-05-29T03:45:19;5.97;;;5.20;;
62798;SDS011;48842;51.046;13.796;2023-05-29T03:47:44;5.43;;;4.53;;
62798;SDS011;48842;51.046;13.796;2023-05-29T03:50:09;4.90;;;4.47;;
62798;SDS011;48842;51.046;13.796;2023-05-29T03:52:36;4.47;;;4.00;;
62798;SDS011;48842;51.046;13.796;2023-05-29T03:55:02;8.83;;;5.23;;
62798;SDS011;48842;51.046;13.796;2023-05-29T03:57:28;5.50;;;4.50;;
62798;SDS011;48842;51.046;13.796;2023-05-29T03:59:53;5.77;;;5.27;;
62798;SDS011;48842;51.046;13.796;2023-05-29T04:02:18;9.93;;;5.23;;
62798;SDS011;48842;51.046;13.796;2023-05-29T04:04:43;6.50;;;5.40;;
62798;SDS011;48842;51.046;13.796;2023-05-29T04:07:09;6.90;;;5.50;;
62798;SDS011;48842;51.046;13.796;2023-05-29T04:09:34;7.43;;;6.00;;
62798;SDS011;48842;51.046;13.796;2023-05-29T04:12:00;9.33;;;5.47;;
62798;SDS011;48842;51.046;13.796;2023-05-29T04:14:27;9.47;;;5.53;;
62798;SDS011;48842;51.046;13.796;2023-05-29T04:16:52;5.87;;;5.27;;
62798;SDS011;48842;51.046;13.796;2023-05-29T04:19:18;4.90;;;4.40;;
62798;SDS011;48842;51.046;13.796;2023-05-29T04:21:43;10.20;;;5.30;;
62798;SDS011;48842;51.046;13.796;2023-05-29T04:24:08;6.20;;;5.30;;
62798;SDS011;48842;51.046;13.796;2023-05-29T04:26:34;10.93;;;4.80;;
62798;SDS011;48842;51.046;13.796;2023-05-29T04:28:59;5.60;;;4.97;;
62798;SDS011;48842;51.046;13.796;2023-05-29T04:31:25;5.37;;;4.70;;
62798;SDS011;48842;51.046;13.796;2023-05-29T04:33:51;6.53;;;5.20;;
62798;SDS011;48842;51.046;13.796;2023-05-29T04:36:21;5.13;;;4.63;;
62798;SDS011;48842;51.046;13.796;2023-05-29T04:38:52;6.00;;;5.10;;
62798;SDS011;48842;51.046;13.796;2023-05-29T04:41:18;6.13;;;5.10;;
62798;SDS011;48842;51.046;13.796;2023-05-29T04:43:43;4.60;;;4.13;;
62798;SDS011;48842;51.046;13.796;2023-05-29T04:46:09;7.10;;;4.73;;
62798;SDS011;48842;51.046;13.796;2023-05-29T04:48:37;6.13;;;4.13;;
62798;SDS011;48842;51.046;13.796;2023-05-29T04:51:05;5.80;;;4.77;;
62798;SDS011;48842;51.046;13.796;2023-05-29T04:53:30;6.83;;;4.80;;
62798;SDS011;48842;51.046;13.796;2023-05-29T04:55:56;14.83;;;4.50;;
62798;SDS011;48842;51.046;13.796;2023-05-29T04:58:21;5.50;;;5.00;;
62798;SDS011;48842;51.046;13.796;2023-05-29T05:00:46;6.77;;;4.47;;
62798;SDS011;48842;51.046;13.796;2023-05-29T05:03:13;8.03;;;5.37;;
62798;SDS011;48842;51.046;13.796;2023-05-29T05:05:41;11.03;;;5.47;;
62798;SDS011;48842;51.046;13.796;2023-05-29T05:08:08;5.70;;;5.10;;
62798;SDS011;48842;51.046;13.796;2023-05-29T05:10:33;16.23;;;5.30;;
62798;SDS011;48842;51.046;13.796;2023-05-29T05:12:59;5.73;;;5.23;;
62798;SDS011;48842;51.046;13.796;2023-05-29T05:15:24;5.70;;;4.67;;
62798;SDS011;48842;51.046;13.796;2023-05-29T05:17:49;6.30;;;5.03;;
62798;SDS011;48842;51.046;13.796;2023-05-29T05:20:14;7.40;;;4.60;;
62798;SDS011;48842;51.046;13.796;2023-05-29T05:22:40;5.40;;;4.87;;
62798;SDS011;48842;51.046;13.796;2023-05-29T05:25:05;8.37;;;5.07;;
62798;SDS011;48842;51.046;13.796;2023-05-29T05:27:31;7.30;;;5.43;;
62798;SDS011;48842;51.046;13.796;2023-05-29T05:29:56;15.93;;;5.27;;
62798;SDS011;48842;51.046;13.796;2023-05-29T05:32:21;5.83;;;4.90;;
62798;SDS011;48842;51.046;13.796;2023-05-29T05:34:47;6.10;;;5.00;;
62798;SDS011;48842;51.046;13.796;2023-05-29T05:37:12;13.53;;;5.97;;
62798;SDS011;48842;51.046;13.796;2023-05-29T05:39:37;5.30;;;4.80;;
62798;SDS011;48842;51.046;13.796;2023-05-29T05:42:03;6.47;;;5.87;;
62798;SDS011;48842;51.046;13.796;2023-05-29T05:44:28;6.13;;;5.40;;
62798;SDS011;48842;51.046;13.796;2023-05-29T05:46:53;6.87;;;5.20;;
62798;SDS011;48842;51.046;13.796;2023-05-29T05:49:19;6.13;;;5.30;;
62798;SDS011;48842;51.046;13.796;2023-05-29T05:51:44;5.90;;;5.10;;
62798;SDS011;48842;51.046;13.796;2023-05-29T05:54:10;6.83;;;5.33;;
62798;SDS011;48842;51.046;13.796;2023-05-29T05:56:36;9.27;;;5.67;;
62798;SDS011;48842;51.046;13.796;2023-05-29T05:59:01;8.77;;;5.10;;
62798;SDS011;48842;51.046;13.796;2023-05-29T06:01:26;14.60;;;5.60;;
62798;SDS011;48842;51.046;13.796;2023-05-29T06:03:51;8.27;;;6.57;;
62798;SDS011;48842;51.046;13.796;2023-05-29T06:06:16;11.60;;;5.73;;
62798;SDS011;48842;51.046;13.796;2023-05-29T06:08:43;5.90;;;5.30;;
62798;SDS011;48842;51.046;13.796;2023-05-29T06:11:09;6.37;;;5.30;;
62798;SDS011;48842;51.046;13.796;2023-05-29T06:13:35;8.63;;;5.70;;
62798;SDS011;48842;51.046;13.796;2023-05-29T06:16:00;8.80;;;5.90;;
62798;SDS011;48842;51.046;13.796;2023-05-29T06:18:25;9.60;;;5.17;;
62798;SDS011;48842;51.046;13.796;2023-05-29T06:20:50;6.93;;;5.30;;
62798;SDS011;48842;51.046;13.796;2023-05-29T06:23:16;7.60;;;4.80;;
62798;SDS011;48842;51.046;13.796;2023-05-29T06:25:42;5.93;;;5.13;;
62798;SDS011;48842;51.046;13.796;2023-05-29T06:28:08;7.30;;;6.20;;
62798;SDS011;48842;51.046;13.796;2023-05-29T06:30:33;8.83;;;6.33;;
62798;SDS011;48842;51.046;13.796;2023-05-29T06:32:58;6.20;;;5.60;;
62798;SDS011;48842;51.046;13.796;2023-05-29T06:35:23;6.60;;;5.63;;
62798;SDS011;48842;51.046;13.796;2023-05-29T06:37:49;6.87;;;5.73;;
62798;SDS011;48842;51.046;13.796;2023-05-29T06:40:14;14.40;;;5.13;;
62798;SDS011;48842;51.046;13.796;2023-05-29T06:42:40;7.83;;;6.10;;
62798;SDS011;48842;51.046;13.796;2023-05-29T06:45:09;8.40;;;5.90;;
62798;SDS011;48842;51.046;13.796;2023-05-29T06:47:36;7.77;;;5.93;;
62798;SDS011;48842;51.046;13.796;2023-05-29T06:50:01;6.77;;;6.07;;
62798;SDS011;48842;51.046;13.796;2023-05-29T06:52:26;10.73;;;5.77;;
62798;SDS011;48842;51.046;13.796;2023-05-29T06:54:51;8.67;;;5.20;;
62798;SDS011;48842;51.046;13.796;2023-05-29T06:57:19;5.63;;;5.03;;
62798;SDS011;48842;51.046;13.796;2023-05-29T06:59:44;8.83;;;6.50;;
62798;SDS011;48842;51.046;13.796;2023-05-29T07:02:09;9.40;;;5.93;;
62798;SDS011;48842;51.046;13.796;2023-05-29T07:04:35;7.07;;;5.27;;
62798;SDS011;48842;51.046;13.796;2023-05-29T07:07:00;8.10;;;5.23;;
62798;SDS011;48842;51.046;13.796;2023-05-29T07:09:26;6.17;;;5.57;;
62798;SDS011;48842;51.046;13.796;2023-05-29T07:11:52;8.13;;;5.37;;
62798;SDS011;48842;51.046;13.796;2023-05-29T07:14:17;7.37;;;5.67;;
62798;SDS011;48842;51.046;13.796;2023-05-29T07:16:43;7.00;;;4.93;;
62798;SDS011;48842;51.046;13.796;2023-05-29T07:19:08;7.00;;;5.10;;
62798;SDS011;48842;51.046;13.796;2023-05-29T07:21:33;6.97;;;4.63;;
62798;SDS011;48842;51.046;13.796;2023-05-29T07:23:59;5.97;;;4.70;;
62798;SDS011;48842;51.046;13.796;2023-05-29T07:26:24;5.17;;;4.67;;
62798;SDS011;48842;51.046;13.796;2023-05-29T07:28:50;5.70;;;4.17;;
62798;SDS011;48842;51.046;13.796;2023-05-29T07:31:15;7.93;;;3.97;;
62798;SDS011;48842;51.046;13.796;2023-05-29T07:33:40;5.90;;;4.37;;
62798;SDS011;48842;51.046;13.796;2023-05-29T07:36:06;7.70;;;4.70;;
62798;SDS011;48842;51.046;13.796;2023-05-29T07:38:32;8.60;;;6.00;;
62798;SDS011;48842;51.046;13.796;2023-05-29T07:40:57;5.90;;;5.30;;
62798;SDS011;48842;51.046;13.796;2023-05-29T07:43:23;6.23;;;4.97;;
62798;SDS011;48842;51.046;13.796;2023-05-29T07:45:48;8.77;;;5.23;;
62798;SDS011;48842;51.046;13.796;2023-05-29T07:48:13;7.23;;;4.03;;
62798;SDS011;48842;51.046;13.796;2023-05-29T07:50:39;8.17;;;4.30;;
62798;SDS011;48842;51.046;13.796;2023-05-29T07:53:04;5.73;;;4.57;;
62798;SDS011;48842;51.046;13.796;2023-05-29T07:55:30;5.20;;;3.90;;
62798;SDS011;48842;51.046;13.796;2023-05-29T07:57:55;7.57;;;4.67;;
62798;SDS011;48842;51.046;13.796;2023-05-29T08:00:20;5.77;;;4.20;;
62798;SDS011;48842;51.046;13.796;2023-05-29T08:02:46;14.80;;;4.37;;
62798;SDS011;48842;51.046;13.796;2023-05-29T08:05:11;4.97;;;4.43;;
62798;SDS011;48842;51.046;13.796;2023-05-29T08:07:37;10.93;;;4.70;;
62798;SDS011;48842;51.046;13.796;2023-05-29T08:10:03;6.50;;;4.50;;
62798;SDS011;48842;51.046;13.796;2023-05-29T08:12:30;4.27;;;3.90;;
62798;SDS011;48842;51.046;13.796;2023-05-29T08:14:55;4.47;;;4.07;;
62798;SDS011;48842;51.046;13.796;2023-05-29T08:17:21;5.90;;;3.90;;
62798;SDS011;48842;51.046;13.796;2023-05-29T08:19:46;16.53;;;4.33;;
62798;SDS011;48842;51.046;13.796;2023-05-29T08:22:12;11.77;;;4.53;;
62798;SDS011;48842;51.046;13.796;2023-05-29T08:24:38;5.83;;;4.00;;
62798;SDS011;48842;51.046;13.796;2023-05-29T08:27:04;7.20;;;3.60;;
62798;SDS011;48842;51.046;13.796;2023-05-29T08:29:29;4.60;;;3.27;;
62798;SDS011;48842;51.046;13.796;2023-05-29T08:31:54;6.37;;;3.30;;
62798;SDS011;48842;51.046;13.796;2023-05-29T08:34:20;3.97;;;3.67;;
62798;SDS011;48842;51.046;13.796;2023-05-29T08:36:45;7.53;;;3.87;;
62798;SDS011;48842;51.046;13.796;2023-05-29T08:39:10;4.60;;;3.77;;
62798;SDS011;48842;51.046;13.796;2023-05-29T08:41:54;5.07;;;3.80;;
62798;SDS011;48842;51.046;13.796;2023-05-29T08:44:26;7.03;;;3.80;;
62798;SDS011;48842;51.046;13.796;2023-05-29T08:46:56;17.63;;;4.00;;
62798;SDS011;48842;51.046;13.796;2023-05-29T08:49:24;3.73;;;2.97;;
62798;SDS011;48842;51.046;13.796;2023-05-29T08:51:57;7.13;;;2.60;;
62798;SDS011;48842;51.046;13.796;2023-05-29T08:54:26;4.60;;;3.23;;
62798;SDS011;48842;51.046;13.796;2023-05-29T08:56:55;4.67;;;2.60;;
62798;SDS011;48842;51.046;13.796;2023-05-29T08:59:22;3.67;;;2.70;;
62798;SDS011;48842;51.046;13.796;2023-05-29T09:01:47;2.77;;;2.57;;
62798;SDS011;48842;51.046;13.796;2023-05-29T09:04:13;4.03;;;3.50;;
62798;SDS011;48842;51.046;13.796;2023-05-29T09:06:38;4.80;;;3.53;;
62798;SDS011;48842;51.046;13.796;2023-05-29T09:09:06;9.73;;;3.30;;
62798;SDS011;48842;51.046;13.796;2023-05-29T09:11:31;3.43;;;3.13;;
62798;SDS011;48842;51.046;13.796;2023-05-29T09:13:57;6.57;;;3.23;;
62798;SDS011;48842;51.046;13.796;2023-05-29T09:16:23;3.80;;;2.70;;
62798;SDS011;48842;51.046;13.796;2023-05-29T09:18:48;5.30;;;2.70;;
62798;SDS011;48842;51.046;13.796;2023-05-29T09:21:31;5.93;;;3.03;;
62798;SDS011;48842;51.046;13.796;2023-05-29T09:24:03;3.90;;;2.33;;
62798;SDS011;48842;51.046;13.796;2023-05-29T09:26:29;5.67;;;2.63;;
62798;SDS011;48842;51.046;13.796;2023-05-29T09:28:55;5.83;;;2.60;;
62798;SDS011;48842;51.046;13.796;2023-05-29T09:31:20;3.13;;;2.83;;
62798;SDS011;48842;51.046;13.796;2023-05-29T09:33:47;5.80;;;2.80;;
62798;SDS011;48842;51.046;13.796;2023-05-29T09:36:23;7.77;;;3.43;;
62798;SDS011;48842;51.046;13.796;2023-05-29T09:38:48;4.43;;;2.97;;
62798;SDS011;48842;51.046;13.796;2023-05-29T09:41:21;11.93;;;3.00;;
62798;SDS011;48842;51.046;13.796;2023-05-29T09:43:48;3.47;;;2.63;;
62798;SDS011;48842;51.046;13.796;2023-05-29T09:46:15;3.17;;;2.83;;
62798;SDS011;48842;51.046;13.796;2023-05-29T09:48:42;7.57;;;3.20;;
62798;SDS011;48842;51.046;13.796;2023-05-29T09:51:07;2.60;;;2.40;;
62798;SDS011;48842;51.046;13.796;2023-05-29T09:53:44;8.00;;;2.93;;
62798;SDS011;48842;51.046;13.796;2023-05-29T09:56:11;2.83;;;2.43;;
62798;SDS011;48842;51.046;13.796;2023-05-29T09:58:38;5.87;;;2.73;;
62798;SDS011;48842;51.046;13.796;2023-05-29T10:01:10;3.77;;;2.80;;
62798;SDS011;48842;51.046;13.796;2023-05-29T10:03:36;9.63;;;3.07;;
62798;SDS011;48842;51.046;13.796;2023-05-29T10:06:01;5.03;;;3.00;;
62798;SDS011;48842;51.046;13.796;2023-05-29T10:08:30;3.57;;;2.60;;
62798;SDS011;48842;51.046;13.796;2023-05-29T10:11:01;5.87;;;2.97;;
62798;SDS011;48842;51.046;13.796;2023-05-29T10:13:31;3.43;;;3.13;;
62798;SDS011;48842;51.046;13.796;2023-05-29T10:16:03;4.17;;;2.90;;
62798;SDS011;48842;51.046;13.796;2023-05-29T10:18:35;3.77;;;2.73;;
62798;SDS011;48842;51.046;13.796;2023-05-29T10:21:03;7.83;;;3.27;;
62798;SDS011;48842;51.046;13.796;2023-05-29T10:23:29;6.10;;;3.23;;
62798;SDS011;48842;51.046;13.796;2023-05-29T10:25:58;4.50;;;3.00;;
62798;SDS011;48842;51.046;13.796;2023-05-29T10:28:29;6.10;;;3.53;;
62798;SDS011;48842;51.046;13.796;2023-05-29T10:30:57;3.83;;;2.90;;
62798;SDS011;48842;51.046;13.796;2023-05-29T10:36:24;5.40;;;3.50;;
62798;SDS011;48842;51.046;13.796;2023-05-29T10:38:53;8.40;;;2.80;;
62798;SDS011;48842;51.046;13.796;2023-05-29T10:43:56;4.77;;;2.73;;
62798;SDS011;48842;51.046;13.796;2023-05-29T10:47:00;6.40;;;2.60;;
62798;SDS011;48842;51.046;13.796;2023-05-29T10:49:17;4.80;;;3.07;;
62798;SDS011;48842;51.046;13.796;2023-05-29T10:51:43;6.20;;;3.70;;
62798;SDS011;48842;51.046;13.796;2023-05-29T10:54:10;6.30;;;2.90;;
62798;SDS011;48842;51.046;13.796;2023-05-29T10:56:35;6.23;;;3.10;;
62798;SDS011;48842;51.046;13.796;2023-05-29T10:59:01;5.83;;;3.00;;
62798;SDS011;48842;51.046;13.796;2023-05-29T11:01:27;5.03;;;2.93;;
62798;SDS011;48842;51.046;13.796;2023-05-29T11:03:54;5.43;;;2.70;;
62798;SDS011;48842;51.046;13.796;2023-05-29T11:06:51;3.37;;;2.97;;
62798;SDS011;48842;51.046;13.796;2023-05-29T11:09:27;5.60;;;3.23;;
62798;SDS011;48842;51.046;13.796;2023-05-29T11:15:05;6.57;;;3.67;;
62798;SDS011;48842;51.046;13.796;2023-05-29T11:20:03;3.67;;;2.80;;
62798;SDS011;48842;51.046;13.796;2023-05-29T11:22:56;4.33;;;3.03;;
62798;SDS011;48842;51.046;13.796;2023-05-29T11:25:26;4.47;;;3.20;;
62798;SDS011;48842;51.046;13.796;2023-05-29T11:27:51;6.07;;;3.30;;
62798;SDS011;48842;51.046;13.796;2023-05-29T11:30:20;4.10;;;3.30;;
62798;SDS011;48842;51.046;13.796;2023-05-29T11:32:46;5.93;;;3.10;;
62798;SDS011;48842;51.046;13.796;2023-05-29T11:35:12;3.57;;;2.37;;
62798;SDS011;48842;51.046;13.796;2023-05-29T11:37:38;5.50;;;2.90;;
62798;SDS011;48842;51.046;13.796;2023-05-29T11:40:05;3.40;;;2.73;;
62798;SDS011;48842;51.046;13.796;2023-05-29T11:42:33;3.23;;;2.77;;
62798;SDS011;48842;51.046;13.796;2023-05-29T11:45:11;6.40;;;3.60;;
62798;SDS011;48842;51.046;13.796;2023-05-29T11:48:02;5.77;;;3.50;;
62798;SDS011;48842;51.046;13.796;2023-05-29T11:50:28;5.50;;;2.60;;
62798;SDS011;48842;51.046;13.796;2023-05-29T11:52:55;5.80;;;3.00;;
62798;SDS011;48842;51.046;13.796;2023-05-29T11:55:21;6.00;;;3.30;;
62798;SDS011;48842;51.046;13.796;2023-05-29T11:57:47;5.07;;;3.50;;
62798;SDS011;48842;51.046;13.796;2023-05-29T12:00:14;4.33;;;3.20;;
62798;SDS011;48842;51.046;13.796;2023-05-29T12:02:41;7.67;;;3.57;;
62798;SDS011;48842;51.046;13.796;2023-05-29T12:05:08;3.80;;;3.20;;
62798;SDS011;48842;51.046;13.796;2023-05-29T12:07:33;22.50;;;3.60;;
62798;SDS011;48842;51.046;13.796;2023-05-29T12:10:12;6.60;;;3.53;;
62798;SDS011;48842;51.046;13.796;2023-05-29T12:12:39;3.93;;;2.80;;
62798;SDS011;48842;51.046;13.796;2023-05-29T12:15:05;4.07;;;2.97;;
62798;SDS011;48842;51.046;13.796;2023-05-29T12:17:31;4.13;;;3.00;;
62798;SDS011;48842;51.046;13.796;2023-05-29T12:19:57;7.00;;;3.20;;
62798;SDS011;48842;51.046;13.796;2023-05-29T12:22:32;6.10;;;3.50;;
62798;SDS011;48842;51.046;13.796;2023-05-29T12:25:03;11.43;;;3.47;;
62798;SDS011;48842;51.046;13.796;2023-05-29T12:27:32;4.83;;;3.80;;
62798;SDS011;48842;51.046;13.796;2023-05-29T12:30:02;3.57;;;3.03;;
62798;SDS011;48842;51.046;13.796;2023-05-29T12:32:40;3.40;;;3.00;;
62798;SDS011;48842;51.046;13.796;2023-05-29T12:35:10;4.13;;;2.93;;
62798;SDS011;48842;51.046;13.796;2023-05-29T12:37:43;4.77;;;2.97;;
62798;SDS011;48842;51.046;13.796;2023-05-29T12:40:15;2.93;;;2.60;;
62798;SDS011;48842;51.046;13.796;2023-05-29T12:42:48;3.37;;;3.07;;
62798;SDS011;48842;51.046;13.796;2023-05-29T12:45:18;6.07;;;3.47;;
62798;SDS011;48842;51.046;13.796;2023-05-29T12:47:44;6.13;;;3.17;;
62798;SDS011;48842;51.046;13.796;2023-05-29T12:50:26;3.63;;;2.80;;
62798;SDS011;48842;51.046;13.796;2023-05-29T12:52:59;5.27;;;3.43;;
62798;SDS011;48842;51.046;13.796;2023-05-29T12:55:38;4.40;;;3.67;;
62798;SDS011;48842;51.046;13.796;2023-05-29T12:58:08;4.27;;;3.30;;
62798;SDS011;48842;51.046;13.796;2023-05-29T13:00:35;4.00;;;3.10;;
62798;SDS011;48842;51.046;13.796;2023-05-29T13:03:03;4.37;;;3.77;;
62798;SDS011;48842;51.046;13.796;2023-05-29T13:05:29;7.93;;;3.20;;
62798;SDS011;48842;51.046;13.796;2023-05-29T13:07:54;4.00;;;3.33;;
62798;SDS011;48842;51.046;13.796;2023-05-29T13:10:20;4.03;;;3.63;;
62798;SDS011;48842;51.046;13.796;2023-05-29T13:12:45;4.77;;;2.83;;
62798;SDS011;48842;51.046;13.796;2023-05-29T13:15:12;6.40;;;2.93;;
62798;SDS011;48842;51.046;13.796;2023-05-29T13:17:38;5.27;;;3.60;;
62798;SDS011;48842;51.046;13.796;2023-05-29T13:20:10;6.27;;;3.30;;
62798;SDS011;48842;51.046;13.796;2023-05-29T13:22:37;3.90;;;2.90;;
62798;SDS011;48842;51.046;13.796;2023-05-29T13:25:03;5.70;;;3.30;;
62798;SDS011;48842;51.046;13.796;2023-05-29T13:27:31;6.40;;;2.90;;
62798;SDS011;48842;51.046;13.796;2023-05-29T13:29:58;10.27;;;3.37;;
62798;SDS011;48842;51.046;13.796;2023-05-29T13:32:23;5.27;;;3.30;;
62798;SDS011;48842;51.046;13.796;2023-05-29T13:34:48;9.20;;;3.47;;
62798;SDS011;48842;51.046;13.796;2023-05-29T13:37:14;4.30;;;3.00;;
62798;SDS011;48842;51.046;13.796;2023-05-29T13:39:39;3.43;;;2.83;;
62798;SDS011;48842;51.046;13.796;2023-05-29T13:42:04;7.87;;;3.40;;
62798;SDS011;48842;51.046;13.796;2023-05-29T13:44:31;4.03;;;3.40;;
62798;SDS011;48842;51.046;13.796;2023-05-29T13:46:56;3.30;;;3.00;;
62798;SDS011;48842;51.046;13.796;2023-05-29T13:49:21;11.33;;;3.33;;
62798;SDS011;48842;51.046;13.796;2023-05-29T13:51:47;3.43;;;3.07;;
62798;SDS011;48842;51.046;13.796;2023-05-29T13:54:13;4.00;;;3.07;;
62798;SDS011;48842;51.046;13.796;2023-05-29T13:56:40;4.10;;;3.70;;
62798;SDS011;48842;51.046;13.796;2023-05-29T13:59:05;8.47;;;3.70;;
62798;SDS011;48842;51.046;13.796;2023-05-29T14:01:31;7.70;;;3.77;;
62798;SDS011;48842;51.046;13.796;2023-05-29T14:03:58;5.20;;;3.37;;
62798;SDS011;48842;51.046;13.796;2023-05-29T14:06:23;3.40;;;3.10;;
62798;SDS011;48842;51.046;13.796;2023-05-29T14:08:49;3.73;;;3.40;;
62798;SDS011;48842;51.046;13.796;2023-05-29T14:11:14;7.23;;;3.47;;
62798;SDS011;48842;51.046;13.796;2023-05-29T14:13:40;4.23;;;3.00;;
62798;SDS011;48842;51.046;13.796;2023-05-29T14:16:05;18.33;;;3.50;;
62798;SDS011;48842;51.046;13.796;2023-05-29T14:18:30;6.27;;;3.00;;
62798;SDS011;48842;51.046;13.796;2023-05-29T14:20:55;6.40;;;3.47;;
62798;SDS011;48842;51.046;13.796;2023-05-29T14:23:21;5.50;;;3.10;;
62798;SDS011;48842;51.046;13.796;2023-05-29T14:25:46;4.80;;;3.07;;
62798;SDS011;48842;51.046;13.796;2023-05-29T14:28:11;5.07;;;3.50;;
62798;SDS011;48842;51.046;13.796;2023-05-29T14:30:37;3.90;;;2.90;;
62798;SDS011;48842;51.046;13.796;2023-05-29T14:33:02;5.13;;;3.00;;
62798;SDS011;48842;51.046;13.796;2023-05-29T14:35:28;6.43;;;3.13;;
62798;SDS011;48842;51.046;13.796;2023-05-29T14:37:54;4.60;;;2.77;;
62798;SDS011;48842;51.046;13.796;2023-05-29T14:40:19;3.00;;;2.63;;
62798;SDS011;48842;51.046;13.796;2023-05-29T14:42:45;2.93;;;2.63;;
62798;SDS011;48842;51.046;13.796;2023-05-29T14:45:10;3.93;;;3.50;;